sensor_id;sensor_type;location;lat;lon;timestamp;pressure;altitude;pressure_sealevel;temperature;humidity
35291;BME280;21411;50.024;19.220;2023-03-15T00:00:32;97731.64;;;5.95;100.00
35291;BME280;21411;50.024;19.220;2023-03-15T00:03:18;97752.17;;;5.73;100.00
35291;BME280;21411;50.024;19.220;2023-03-15T00:05:47;97763.82;;;5.54;100.00
35291;BME280;21411;50.024;19.220;2023-03-15T00:08:14;97783.77;;;5.40;100.00
35291;BME280;21411;50.024;19.220;2023-03-15T00:10:41;97801.38;;;5.29;100.00
35291;BME280;21411;50.024;19.220;2023-03-15T00:13:08;97811.84;;;5.17;100.00
35291;BME280;21411;50.024;19.220;2023-03-15T00:15:35;97831.83;;;5.02;100.00
35291;BME280;21411;50.024;19.220;2023-03-15T00:18:02;97847.13;;;4.91;100.00
35291;BME280;21411;50.024;19.220;2023-03-15T00:20:29;97860.79;;;4.83;100.00
35291;BME280;21411;50.024;19.220;2023-03-15T00:22:56;97875.54;;;4.75;100.00
35291;BME280;21411;50.024;19.220;2023-03-15T00:25:23;97884.63;;;4.68;100.00
35291;BME280;21411;50.024;19.220;2023-03-15T00:27:49;97886.41;;;4.61;100.00
35291;BME280;21411;50.024;19.220;2023-03-15T00:30:16;97893.98;;;4.58;100.00
35291;BME280;21411;50.024;19.220;2023-03-15T00:32:43;97899.62;;;4.56;100.00
35291;BME280;21411;50.024;19.220;2023-03-15T00:35:10;97907.15;;;4.53;100.00
35291;BME280;21411;50.024;19.220;2023-03-15T00:37:38;97919.11;;;4.50;100.00
35291;BME280;21411;50.024;19.220;2023-03-15T00:40:05;97927.91;;;4.47;100.00
35291;BME280;21411;50.024;19.220;2023-03-15T00:42:33;97934.89;;;4.42;100.00
35291;BME280;21411;50.024;19.220;2023-03-15T00:44:59;97952.24;;;4.37;100.00
35291;BME280;21411;50.024;19.220;2023-03-15T00:47:26;97961.54;;;4.34;100.00
35291;BME280;21411;50.024;19.220;2023-03-15T00:49:52;97964.66;;;4.32;100.00
35291;BME280;21411;50.024;19.220;2023-03-15T00:52:19;97964.96;;;4.30;100.00
35291;BME280;21411;50.024;19.220;2023-03-15T00:54:52;97970.67;;;4.25;100.00
35291;BME280;21411;50.024;19.220;2023-03-15T00:57:20;97980.57;;;4.21;100.00
35291;BME280;21411;50.024;19.220;2023-03-15T00:59:47;97982.55;;;4.17;100.00
35291;BME280;21411;50.024;19.220;2023-03-15T01:02:13;97987.52;;;4.14;100.00
35291;BME280;21411;50.024;19.220;2023-03-15T01:04:40;97988.94;;;4.14;100.00
35291;BME280;21411;50.024;19.220;2023-03-15T01:07:07;97990.62;;;4.12;100.00
35291;BME280;21411;50.024;19.220;2023-03-15T01:09:33;97983.63;;;4.08;100.00
35291;BME280;21411;50.024;19.220;2023-03-15T01:12:00;97978.89;;;4.05;100.00
35291;BME280;21411;50.024;19.220;2023-03-15T01:14:26;97970.42;;;4.02;100.00
35291;BME280;21411;50.024;19.220;2023-03-15T01:16:53;97959.32;;;4.00;100.00
35291;BME280;21411;50.024;19.220;2023-03-15T01:19:20;97958.08;;;3.96;100.00
35291;BME280;21411;50.024;19.220;2023-03-15T01:21:46;97965.26;;;3.94;100.00
35291;BME280;21411;50.024;19.220;2023-03-15T01:24:13;97969.52;;;3.93;100.00
35291;BME280;21411;50.024;19.220;2023-03-15T01:26:40;97963.90;;;3.93;100.00
35291;BME280;21411;50.024;19.220;2023-03-15T01:29:07;97962.85;;;3.93;100.00
35291;BME280;21411;50.024;19.220;2023-03-15T01:31:33;97974.17;;;3.91;100.00
35291;BME280;21411;50.024;19.220;2023-03-15T01:34:00;97978.95;;;3.88;100.00
35291;BME280;21411;50.024;19.220;2023-03-15T01:36:27;97985.27;;;3.85;100.00
35291;BME280;21411;50.024;19.220;2023-03-15T01:38:53;97997.88;;;3.82;100.00
35291;BME280;21411;50.024;19.220;2023-03-15T01:41:21;98007.53;;;3.83;100.00
35291;BME280;21411;50.024;19.220;2023-03-15T01:43:50;98016.88;;;3.82;100.00
35291;BME280;21411;50.024;19.220;2023-03-15T01:49:13;98040.86;;;3.74;100.00
35291;BME280;21411;50.024;19.220;2023-03-15T01:54:48;98059.94;;;3.69;100.00
35291;BME280;21411;50.024;19.220;2023-03-15T01:57:24;98061.55;;;3.68;100.00
35291;BME280;21411;50.024;19.220;2023-03-15T01:59:59;98066.27;;;3.68;100.00
35291;BME280;21411;50.024;19.220;2023-03-15T02:02:27;98068.62;;;3.67;100.00
35291;BME280;21411;50.024;19.220;2023-03-15T02:05:02;98072.55;;;3.66;100.00
35291;BME280;21411;50.024;19.220;2023-03-15T02:07:35;98080.69;;;3.65;100.00
35291;BME280;21411;50.024;19.220;2023-03-15T02:10:10;98085.31;;;3.64;100.00
35291;BME280;21411;50.024;19.220;2023-03-15T02:12:42;98086.14;;;3.62;100.00
35291;BME280;21411;50.024;19.220;2023-03-15T02:15:12;98089.52;;;3.58;100.00
35291;BME280;21411;50.024;19.220;2023-03-15T02:17:45;98097.92;;;3.55;100.00
35291;BME280;21411;50.024;19.220;2023-03-15T02:22:49;98106.05;;;3.51;100.00
35291;BME280;21411;50.024;19.220;2023-03-15T02:28:22;98105.55;;;3.43;100.00
35291;BME280;21411;50.024;19.220;2023-03-15T02:30:49;98108.43;;;3.42;100.00
35291;BME280;21411;50.024;19.220;2023-03-15T02:33:28;98105.47;;;3.41;100.00
35291;BME280;21411;50.024;19.220;2023-03-15T02:36:06;98105.87;;;3.41;100.00
35291;BME280;21411;50.024;19.220;2023-03-15T02:38:33;98103.83;;;3.39;100.00
35291;BME280;21411;50.024;19.220;2023-03-15T02:41:00;98106.02;;;3.38;100.00
35291;BME280;21411;50.024;19.220;2023-03-15T02:43:29;98105.33;;;3.34;100.00
35291;BME280;21411;50.024;19.220;2023-03-15T02:45:57;98112.66;;;3.32;100.00
35291;BME280;21411;50.024;19.220;2023-03-15T02:48:25;98115.29;;;3.28;100.00
35291;BME280;21411;50.024;19.220;2023-03-15T02:50:52;98120.23;;;3.28;100.00
35291;BME280;21411;50.024;19.220;2023-03-15T02:53:18;98124.27;;;3.28;100.00
35291;BME280;21411;50.024;19.220;2023-03-15T02:55:45;98122.02;;;3.27;100.00
35291;BME280;21411;50.024;19.220;2023-03-15T02:58:11;98125.02;;;3.27;100.00
35291;BME280;21411;50.024;19.220;2023-03-15T03:00:38;98127.48;;;3.26;100.00
35291;BME280;21411;50.024;19.220;2023-03-15T03:03:05;98127.33;;;3.26;100.00
35291;BME280;21411;50.024;19.220;2023-03-15T03:05:31;98132.29;;;3.25;100.00
35291;BME280;21411;50.024;19.220;2023-03-15T03:07:58;98140.55;;;3.25;100.00
35291;BME280;21411;50.024;19.220;2023-03-15T03:10:24;98143.86;;;3.25;100.00
35291;BME280;21411;50.024;19.220;2023-03-15T03:12:51;98149.95;;;3.26;100.00
35291;BME280;21411;50.024;19.220;2023-03-15T03:15:18;98161.11;;;3.28;100.00
35291;BME280;21411;50.024;19.220;2023-03-15T03:17:46;98167.15;;;3.30;100.00
35291;BME280;21411;50.024;19.220;2023-03-15T03:20:13;98168.40;;;3.33;100.00
35291;BME280;21411;50.024;19.220;2023-03-15T03:22:40;98170.63;;;3.34;100.00
35291;BME280;21411;50.024;19.220;2023-03-15T03:25:08;98174.13;;;3.34;100.00
35291;BME280;21411;50.024;19.220;2023-03-15T03:27:40;98174.17;;;3.34;100.00
35291;BME280;21411;50.024;19.220;2023-03-15T03:30:09;98175.88;;;3.35;100.00
35291;BME280;21411;50.024;19.220;2023-03-15T03:32:38;98186.30;;;3.33;100.00
35291;BME280;21411;50.024;19.220;2023-03-15T03:35:06;98189.73;;;3.31;100.00
35291;BME280;21411;50.024;19.220;2023-03-15T03:37:33;98193.83;;;3.30;100.00
35291;BME280;21411;50.024;19.220;2023-03-15T03:40:01;98199.73;;;3.28;100.00
35291;BME280;21411;50.024;19.220;2023-03-15T03:42:32;98202.08;;;3.27;100.00
35291;BME280;21411;50.024;19.220;2023-03-15T03:44:59;98202.80;;;3.26;100.00
35291;BME280;21411;50.024;19.220;2023-03-15T03:47:25;98206.89;;;3.25;100.00
35291;BME280;21411;50.024;19.220;2023-03-15T03:49:52;98208.67;;;3.25;100.00
35291;BME280;21411;50.024;19.220;2023-03-15T03:52:18;98213.60;;;3.24;100.00
35291;BME280;21411;50.024;19.220;2023-03-15T03:54:45;98219.71;;;3.25;100.00
35291;BME280;21411;50.024;19.220;2023-03-15T03:57:11;98224.67;;;3.24;100.00
35291;BME280;21411;50.024;19.220;2023-03-15T03:59:38;98230.67;;;3.23;100.00
35291;BME280;21411;50.024;19.220;2023-03-15T04:02:04;98231.91;;;3.23;100.00
35291;BME280;21411;50.024;19.220;2023-03-15T04:04:31;98238.54;;;3.25;100.00
35291;BME280;21411;50.024;19.220;2023-03-15T04:06:58;98231.48;;;3.25;100.00
35291;BME280;21411;50.024;19.220;2023-03-15T04:09:24;98226.67;;;3.26;100.00
35291;BME280;21411;50.024;19.220;2023-03-15T04:11:51;98223.33;;;3.26;100.00
35291;BME280;21411;50.024;19.220;2023-03-15T04:14:17;98221.55;;;3.27;100.00
35291;BME280;21411;50.024;19.220;2023-03-15T04:16:44;98222.09;;;3.27;100.00
35291;BME280;21411;50.024;19.220;2023-03-15T04:19:11;98223.16;;;3.26;100.00
35291;BME280;21411;50.024;19.220;2023-03-15T04:21:40;98226.69;;;3.26;100.00
35291;BME280;21411;50.024;19.220;2023-03-15T04:24:13;98228.06;;;3.23;100.00
35291;BME280;21411;50.024;19.220;2023-03-15T04:26:40;98229.30;;;3.20;100.00
35291;BME280;21411;50.024;19.220;2023-03-15T04:29:09;98229.09;;;3.17;100.00
35291;BME280;21411;50.024;19.220;2023-03-15T04:31:36;98235.87;;;3.15;100.00
35291;BME280;21411;50.024;19.220;2023-03-15T04:34:04;98236.88;;;3.12;100.00
35291;BME280;21411;50.024;19.220;2023-03-15T04:36:31;98237.48;;;3.10;100.00
35291;BME280;21411;50.024;19.220;2023-03-15T04:38:57;98237.05;;;3.08;100.00
35291;BME280;21411;50.024;19.220;2023-03-15T04:41:29;98236.05;;;3.07;100.00
35291;BME280;21411;50.024;19.220;2023-03-15T04:43:56;98239.61;;;3.06;100.00
35291;BME280;21411;50.024;19.220;2023-03-15T04:46:22;98244.40;;;3.05;100.00
35291;BME280;21411;50.024;19.220;2023-03-15T04:48:49;98245.81;;;3.04;100.00
35291;BME280;21411;50.024;19.220;2023-03-15T04:51:16;98243.20;;;3.04;100.00
35291;BME280;21411;50.024;19.220;2023-03-15T04:53:43;98245.19;;;3.03;100.00
35291;BME280;21411;50.024;19.220;2023-03-15T04:56:09;98252.27;;;3.02;100.00
35291;BME280;21411;50.024;19.220;2023-03-15T04:58:36;98250.94;;;3.00;100.00
35291;BME280;21411;50.024;19.220;2023-03-15T05:01:02;98254.69;;;2.99;100.00
35291;BME280;21411;50.024;19.220;2023-03-15T05:03:29;98260.85;;;2.99;100.00
35291;BME280;21411;50.024;19.220;2023-03-15T05:05:56;98261.43;;;2.98;100.00
35291;BME280;21411;50.024;19.220;2023-03-15T05:08:23;98267.27;;;2.96;100.00
35291;BME280;21411;50.024;19.220;2023-03-15T05:10:49;98272.37;;;2.96;100.00
35291;BME280;21411;50.024;19.220;2023-03-15T05:13:17;98272.85;;;2.97;100.00
35291;BME280;21411;50.024;19.220;2023-03-15T05:15:44;98273.30;;;2.95;100.00
35291;BME280;21411;50.024;19.220;2023-03-15T05:18:11;98274.13;;;2.92;100.00
35291;BME280;21411;50.024;19.220;2023-03-15T05:20:38;98278.64;;;2.90;100.00
35291;BME280;21411;50.024;19.220;2023-03-15T05:23:04;98284.59;;;2.90;100.00
35291;BME280;21411;50.024;19.220;2023-03-15T05:25:31;98291.74;;;2.91;100.00
35291;BME280;21411;50.024;19.220;2023-03-15T05:27:57;98293.27;;;2.92;100.00
35291;BME280;21411;50.024;19.220;2023-03-15T05:30:24;98293.25;;;2.93;100.00
35291;BME280;21411;50.024;19.220;2023-03-15T05:32:51;98294.55;;;2.95;100.00
35291;BME280;21411;50.024;19.220;2023-03-15T05:35:17;98297.07;;;2.97;100.00
35291;BME280;21411;50.024;19.220;2023-03-15T05:37:44;98300.46;;;2.99;100.00
35291;BME280;21411;50.024;19.220;2023-03-15T05:40:11;98302.19;;;3.00;100.00
35291;BME280;21411;50.024;19.220;2023-03-15T05:42:38;98309.30;;;3.01;100.00
35291;BME280;21411;50.024;19.220;2023-03-15T05:45:05;98313.27;;;3.03;100.00
35291;BME280;21411;50.024;19.220;2023-03-15T05:47:32;98316.88;;;3.05;100.00
35291;BME280;21411;50.024;19.220;2023-03-15T05:49:59;98317.71;;;3.06;100.00
35291;BME280;21411;50.024;19.220;2023-03-15T05:52:26;98319.78;;;3.06;100.00
35291;BME280;21411;50.024;19.220;2023-03-15T05:54:52;98321.77;;;3.09;100.00
35291;BME280;21411;50.024;19.220;2023-03-15T05:57:19;98322.80;;;3.09;100.00
35291;BME280;21411;50.024;19.220;2023-03-15T05:59:45;98329.39;;;3.07;100.00
35291;BME280;21411;50.024;19.220;2023-03-15T06:02:12;98330.27;;;3.07;100.00
35291;BME280;21411;50.024;19.220;2023-03-15T06:04:39;98333.09;;;3.11;100.00
35291;BME280;21411;50.024;19.220;2023-03-15T06:07:06;98339.11;;;3.17;100.00
35291;BME280;21411;50.024;19.220;2023-03-15T06:09:33;98347.13;;;3.22;100.00
35291;BME280;21411;50.024;19.220;2023-03-15T06:11:59;98353.14;;;3.25;100.00
35291;BME280;21411;50.024;19.220;2023-03-15T06:14:26;98358.16;;;3.30;100.00
35291;BME280;21411;50.024;19.220;2023-03-15T06:16:53;98370.20;;;3.35;100.00
35291;BME280;21411;50.024;19.220;2023-03-15T06:19:21;98372.70;;;3.38;100.00
35291;BME280;21411;50.024;19.220;2023-03-15T06:21:48;98378.84;;;3.42;100.00
35291;BME280;21411;50.024;19.220;2023-03-15T06:24:15;98382.56;;;3.48;100.00
35291;BME280;21411;50.024;19.220;2023-03-15T06:26:41;98391.11;;;3.53;100.00
35291;BME280;21411;50.024;19.220;2023-03-15T06:29:08;98394.84;;;3.56;100.00
35291;BME280;21411;50.024;19.220;2023-03-15T06:31:34;98397.18;;;3.62;100.00
35291;BME280;21411;50.024;19.220;2023-03-15T06:34:01;98392.38;;;3.67;100.00
35291;BME280;21411;50.024;19.220;2023-03-15T06:36:28;98390.54;;;3.73;100.00
35291;BME280;21411;50.024;19.220;2023-03-15T06:38:56;98395.69;;;3.79;100.00
35291;BME280;21411;50.024;19.220;2023-03-15T06:41:24;98401.05;;;3.84;100.00
35291;BME280;21411;50.024;19.220;2023-03-15T06:43:52;98410.31;;;3.92;100.00
35291;BME280;21411;50.024;19.220;2023-03-15T06:46:18;98414.05;;;3.98;100.00
35291;BME280;21411;50.024;19.220;2023-03-15T06:48:45;98420.61;;;4.01;99.75
35291;BME280;21411;50.024;19.220;2023-03-15T06:51:11;98432.83;;;4.02;99.14
35291;BME280;21411;50.024;19.220;2023-03-15T06:53:38;98433.18;;;4.06;98.59
35291;BME280;21411;50.024;19.220;2023-03-15T06:56:05;98431.77;;;4.13;98.45
35291;BME280;21411;50.024;19.220;2023-03-15T06:58:31;98436.12;;;4.21;98.35
35291;BME280;21411;50.024;19.220;2023-03-15T07:00:58;98438.29;;;4.30;97.77
35291;BME280;21411;50.024;19.220;2023-03-15T07:03:25;98439.20;;;4.40;97.63
35291;BME280;21411;50.024;19.220;2023-03-15T07:05:51;98440.70;;;4.52;97.22
35291;BME280;21411;50.024;19.220;2023-03-15T07:08:21;98442.74;;;4.60;96.10
35291;BME280;21411;50.024;19.220;2023-03-15T07:10:48;98443.98;;;4.67;94.54
35291;BME280;21411;50.024;19.220;2023-03-15T07:13:16;98443.55;;;4.69;93.44
35291;BME280;21411;50.024;19.220;2023-03-15T07:15:43;98443.48;;;4.67;92.08
35291;BME280;21411;50.024;19.220;2023-03-15T07:18:10;98444.17;;;4.63;91.90
35291;BME280;21411;50.024;19.220;2023-03-15T07:20:37;98448.27;;;4.59;90.74
35291;BME280;21411;50.024;19.220;2023-03-15T07:23:04;98456.86;;;4.53;90.82
35291;BME280;21411;50.024;19.220;2023-03-15T07:25:31;98458.56;;;4.44;89.59
35291;BME280;21411;50.024;19.220;2023-03-15T07:27:57;98456.67;;;4.35;89.91
35291;BME280;21411;50.024;19.220;2023-03-15T07:30:24;98460.91;;;4.32;90.33
35291;BME280;21411;50.024;19.220;2023-03-15T07:32:50;98463.98;;;4.33;90.54
35291;BME280;21411;50.024;19.220;2023-03-15T07:35:17;98461.20;;;4.40;91.01
35291;BME280;21411;50.024;19.220;2023-03-15T07:37:44;98463.39;;;4.45;88.98
35291;BME280;21411;50.024;19.220;2023-03-15T07:40:11;98472.22;;;4.48;89.09
35291;BME280;21411;50.024;19.220;2023-03-15T07:42:39;98475.46;;;4.57;89.57
35291;BME280;21411;50.024;19.220;2023-03-15T07:45:07;98481.73;;;4.68;89.31
35291;BME280;21411;50.024;19.220;2023-03-15T07:47:33;98486.00;;;4.74;88.88
35291;BME280;21411;50.024;19.220;2023-03-15T07:50:01;98492.42;;;4.79;87.71
35291;BME280;21411;50.024;19.220;2023-03-15T07:52:27;98494.48;;;4.88;87.40
35291;BME280;21411;50.024;19.220;2023-03-15T07:54:54;98498.22;;;4.94;86.28
35291;BME280;21411;50.024;19.220;2023-03-15T07:57:20;98496.45;;;4.98;84.87
35291;BME280;21411;50.024;19.220;2023-03-15T07:59:47;98503.83;;;5.04;85.12
35291;BME280;21411;50.024;19.220;2023-03-15T08:02:14;98505.95;;;5.18;84.43
35291;BME280;21411;50.024;19.220;2023-03-15T08:04:40;98508.70;;;5.25;82.47
35291;BME280;21411;50.024;19.220;2023-03-15T08:07:07;98511.48;;;5.29;82.62
35291;BME280;21411;50.024;19.220;2023-03-15T08:09:34;98511.29;;;5.37;82.33
35291;BME280;21411;50.024;19.220;2023-03-15T08:12:01;98514.00;;;5.39;82.65
35291;BME280;21411;50.024;19.220;2023-03-15T08:14:27;98519.61;;;5.42;83.15
35291;BME280;21411;50.024;19.220;2023-03-15T08:16:55;98521.23;;;5.48;82.69
35291;BME280;21411;50.024;19.220;2023-03-15T08:19:22;98526.23;;;5.43;80.57
35291;BME280;21411;50.024;19.220;2023-03-15T08:21:48;98529.95;;;5.36;82.08
35291;BME280;21411;50.024;19.220;2023-03-15T08:24:19;98533.73;;;5.41;82.66
35291;BME280;21411;50.024;19.220;2023-03-15T08:26:47;98535.10;;;5.49;82.32
35291;BME280;21411;50.024;19.220;2023-03-15T08:29:14;98537.01;;;5.56;80.69
35291;BME280;21411;50.024;19.220;2023-03-15T08:31:41;98541.66;;;5.55;79.23
35291;BME280;21411;50.024;19.220;2023-03-15T08:34:07;98540.14;;;5.50;79.42
35291;BME280;21411;50.024;19.220;2023-03-15T08:36:34;98539.74;;;5.48;78.50
35291;BME280;21411;50.024;19.220;2023-03-15T08:39:01;98545.55;;;5.44;78.71
35291;BME280;21411;50.024;19.220;2023-03-15T08:41:31;98548.98;;;5.43;77.89
35291;BME280;21411;50.024;19.220;2023-03-15T08:43:58;98549.30;;;5.43;78.24
35291;BME280;21411;50.024;19.220;2023-03-15T08:46:25;98548.42;;;5.50;77.72
35291;BME280;21411;50.024;19.220;2023-03-15T08:48:52;98554.44;;;5.56;77.94
35291;BME280;21411;50.024;19.220;2023-03-15T08:51:19;98555.98;;;5.67;77.18
35291;BME280;21411;50.024;19.220;2023-03-15T08:53:47;98562.20;;;5.72;77.08
35291;BME280;21411;50.024;19.220;2023-03-15T08:56:13;98562.44;;;5.75;75.16
35291;BME280;21411;50.024;19.220;2023-03-15T08:58:40;98565.36;;;5.70;74.82
35291;BME280;21411;50.024;19.220;2023-03-15T09:01:10;98569.42;;;5.69;75.38
35291;BME280;21411;50.024;19.220;2023-03-15T09:03:36;98573.52;;;5.75;76.14
35291;BME280;21411;50.024;19.220;2023-03-15T09:06:05;98572.52;;;5.87;76.66
35291;BME280;21411;50.024;19.220;2023-03-15T09:08:32;98580.47;;;5.97;76.03
35291;BME280;21411;50.024;19.220;2023-03-15T09:10:59;98587.05;;;5.96;75.08
35291;BME280;21411;50.024;19.220;2023-03-15T09:13:27;98589.08;;;5.98;74.11
35291;BME280;21411;50.024;19.220;2023-03-15T09:15:55;98597.14;;;6.02;73.99
35291;BME280;21411;50.024;19.220;2023-03-15T09:18:24;98594.92;;;6.01;72.59
35291;BME280;21411;50.024;19.220;2023-03-15T09:20:51;98592.19;;;5.92;71.69
35291;BME280;21411;50.024;19.220;2023-03-15T09:23:18;98591.55;;;5.84;71.61
35291;BME280;21411;50.024;19.220;2023-03-15T09:25:44;98595.09;;;5.84;72.54
35291;BME280;21411;50.024;19.220;2023-03-15T09:28:11;98593.32;;;5.94;73.19
35291;BME280;21411;50.024;19.220;2023-03-15T09:30:39;98591.79;;;6.00;72.58
35291;BME280;21411;50.024;19.220;2023-03-15T09:33:07;98591.89;;;6.01;72.24
35291;BME280;21411;50.024;19.220;2023-03-15T09:35:34;98589.30;;;6.07;71.65
35291;BME280;21411;50.024;19.220;2023-03-15T09:38:01;98589.00;;;6.09;70.78
35291;BME280;21411;50.024;19.220;2023-03-15T09:40:31;98589.98;;;6.07;70.04
35291;BME280;21411;50.024;19.220;2023-03-15T09:48:25;98584.20;;;6.19;71.18
35291;BME280;21411;50.024;19.220;2023-03-15T09:53:39;98584.84;;;6.33;70.30
35291;BME280;21411;50.024;19.220;2023-03-15T09:56:21;98590.38;;;6.28;69.82
35291;BME280;21411;50.024;19.220;2023-03-15T09:58:51;98594.33;;;6.18;69.95
35291;BME280;21411;50.024;19.220;2023-03-15T10:01:27;98598.92;;;6.14;70.75
35291;BME280;21411;50.024;19.220;2023-03-15T10:03:54;98604.13;;;6.16;70.99
35291;BME280;21411;50.024;19.220;2023-03-15T10:06:31;98608.29;;;6.24;70.40
35291;BME280;21411;50.024;19.220;2023-03-15T10:09:05;98614.52;;;6.19;69.68
35291;BME280;21411;50.024;19.220;2023-03-15T10:11:45;98617.86;;;6.20;69.45
35291;BME280;21411;50.024;19.220;2023-03-15T10:14:23;98620.30;;;6.17;69.36
35291;BME280;21411;50.024;19.220;2023-03-15T10:16:50;98622.79;;;6.20;68.85
35291;BME280;21411;50.024;19.220;2023-03-15T10:19:39;98626.97;;;6.14;68.59
35291;BME280;21411;50.024;19.220;2023-03-15T10:25:23;98623.20;;;6.06;69.34
35291;BME280;21411;50.024;19.220;2023-03-15T10:27:55;98627.33;;;6.04;68.98
35291;BME280;21411;50.024;19.220;2023-03-15T10:30:25;98630.17;;;6.07;69.01
35291;BME280;21411;50.024;19.220;2023-03-15T10:35:31;98634.48;;;6.29;68.83
35291;BME280;21411;50.024;19.220;2023-03-15T10:37:58;98634.21;;;6.36;67.47
35291;BME280;21411;50.024;19.220;2023-03-15T10:40:39;98633.95;;;6.41;66.84
35291;BME280;21411;50.024;19.220;2023-03-15T10:46:06;98636.27;;;6.28;65.46
35291;BME280;21411;50.024;19.220;2023-03-15T10:48:35;98635.83;;;6.23;66.26
35291;BME280;21411;50.024;19.220;2023-03-15T10:53:32;98633.77;;;6.32;66.40
35291;BME280;21411;50.024;19.220;2023-03-15T10:56:04;98637.79;;;6.35;66.84
35291;BME280;21411;50.024;19.220;2023-03-15T10:58:46;98636.07;;;6.38;66.81
35291;BME280;21411;50.024;19.220;2023-03-15T11:01:22;98637.94;;;6.36;66.54
35291;BME280;21411;50.024;19.220;2023-03-15T11:04:23;98635.58;;;6.41;67.72
35291;BME280;21411;50.024;19.220;2023-03-15T11:09:22;98640.27;;;6.42;66.22
35291;BME280;21411;50.024;19.220;2023-03-15T11:11:56;98637.88;;;6.44;66.29
35291;BME280;21411;50.024;19.220;2023-03-15T11:14:24;98638.98;;;6.43;66.14
35291;BME280;21411;50.024;19.220;2023-03-15T11:16:55;98639.59;;;6.48;66.85
35291;BME280;21411;50.024;19.220;2023-03-15T11:19:25;98633.73;;;6.58;66.20
35291;BME280;21411;50.024;19.220;2023-03-15T11:21:54;98632.10;;;6.65;65.56
35291;BME280;21411;50.024;19.220;2023-03-15T11:24:29;98631.88;;;6.66;63.77
35291;BME280;21411;50.024;19.220;2023-03-15T11:26:59;98633.95;;;6.66;63.09
35291;BME280;21411;50.024;19.220;2023-03-15T11:31:55;98629.67;;;6.86;63.43
35291;BME280;21411;50.024;19.220;2023-03-15T11:34:25;98632.00;;;6.91;62.95
35291;BME280;21411;50.024;19.220;2023-03-15T11:36:58;98632.20;;;6.97;63.17
35291;BME280;21411;50.024;19.220;2023-03-15T11:39:40;98627.77;;;7.06;62.03
35291;BME280;21411;50.024;19.220;2023-03-15T11:42:19;98622.50;;;7.03;59.81
35291;BME280;21411;50.024;19.220;2023-03-15T11:44:51;98622.96;;;7.04;60.03
35291;BME280;21411;50.024;19.220;2023-03-15T11:47:44;98621.21;;;7.03;58.15
35291;BME280;21411;50.024;19.220;2023-03-15T11:50:14;98626.37;;;6.97;59.55
35291;BME280;21411;50.024;19.220;2023-03-15T11:52:41;98626.20;;;7.06;60.29
35291;BME280;21411;50.024;19.220;2023-03-15T11:55:16;98624.00;;;7.19;60.07
35291;BME280;21411;50.024;19.220;2023-03-15T11:57:45;98627.20;;;7.25;59.51
35291;BME280;21411;50.024;19.220;2023-03-15T12:05:44;98628.55;;;7.52;60.03
35291;BME280;21411;50.024;19.220;2023-03-15T12:10:47;98623.44;;;7.49;58.27
35291;BME280;21411;50.024;19.220;2023-03-15T12:13:27;98624.71;;;7.55;58.33
35291;BME280;21411;50.024;19.220;2023-03-15T12:15:55;98627.48;;;7.59;58.13
35291;BME280;21411;50.024;19.220;2023-03-15T12:18:28;98630.77;;;7.60;57.72
35291;BME280;21411;50.024;19.220;2023-03-15T12:23:38;98628.23;;;7.61;57.58
35291;BME280;21411;50.024;19.220;2023-03-15T12:26:09;98627.06;;;7.69;57.91
35291;BME280;21411;50.024;19.220;2023-03-15T12:28:40;98633.89;;;7.70;56.92
35291;BME280;21411;50.024;19.220;2023-03-15T12:31:12;98632.33;;;7.69;57.50
35291;BME280;21411;50.024;19.220;2023-03-15T12:33:54;98631.24;;;7.72;57.60
35291;BME280;21411;50.024;19.220;2023-03-15T12:36:34;98625.91;;;7.73;57.25
35291;BME280;21411;50.024;19.220;2023-03-15T12:39:20;98621.23;;;7.72;57.06
35291;BME280;21411;50.024;19.220;2023-03-15T12:41:50;98620.35;;;7.62;56.78
35291;BME280;21411;50.024;19.220;2023-03-15T12:46:54;98632.16;;;7.57;56.90
35291;BME280;21411;50.024;19.220;2023-03-15T12:52:01;98641.72;;;7.54;57.10
35291;BME280;21411;50.024;19.220;2023-03-15T12:54:49;98640.55;;;7.53;57.13
35291;BME280;21411;50.024;19.220;2023-03-15T12:57:29;98636.09;;;7.45;56.61
35291;BME280;21411;50.024;19.220;2023-03-15T12:59:59;98635.19;;;7.36;56.73
35291;BME280;21411;50.024;19.220;2023-03-15T13:02:34;98637.86;;;7.30;56.82
35291;BME280;21411;50.024;19.220;2023-03-15T13:05:22;98639.88;;;7.25;57.43
35291;BME280;21411;50.024;19.220;2023-03-15T13:07:51;98643.30;;;7.24;57.30
35291;BME280;21411;50.024;19.220;2023-03-15T13:16:04;98654.52;;;7.05;57.13
35291;BME280;21411;50.024;19.220;2023-03-15T13:18:45;98659.71;;;7.00;57.10
35291;BME280;21411;50.024;19.220;2023-03-15T13:21:27;98659.02;;;6.97;57.16
35291;BME280;21411;50.024;19.220;2023-03-15T13:23:57;98662.60;;;6.93;57.61
35291;BME280;21411;50.024;19.220;2023-03-15T13:26:38;98667.52;;;6.91;57.18
35291;BME280;21411;50.024;19.220;2023-03-15T13:29:15;98675.55;;;6.83;57.59
35291;BME280;21411;50.024;19.220;2023-03-15T13:31:44;98678.09;;;6.82;57.72
35291;BME280;21411;50.024;19.220;2023-03-15T13:34:21;98678.13;;;6.81;57.50
35291;BME280;21411;50.024;19.220;2023-03-15T13:36:55;98684.11;;;6.78;57.35
35291;BME280;21411;50.024;19.220;2023-03-15T13:39:29;98688.94;;;6.77;57.94
35291;BME280;21411;50.024;19.220;2023-03-15T13:44:28;98689.81;;;6.74;57.86
35291;BME280;21411;50.024;19.220;2023-03-15T13:46:57;98684.48;;;6.69;57.91
35291;BME280;21411;50.024;19.220;2023-03-15T13:49:29;98683.66;;;6.65;58.10
35291;BME280;21411;50.024;19.220;2023-03-15T13:51:56;98693.56;;;6.58;58.07
35291;BME280;21411;50.024;19.220;2023-03-15T13:54:27;98698.94;;;6.53;58.44
35291;BME280;21411;50.024;19.220;2023-03-15T13:59:39;98709.31;;;6.54;58.62
35291;BME280;21411;50.024;19.220;2023-03-15T14:02:47;98708.81;;;6.56;58.35
35291;BME280;21411;50.024;19.220;2023-03-15T14:05:20;98711.83;;;6.59;58.74
35291;BME280;21411;50.024;19.220;2023-03-15T14:08:02;98713.00;;;6.67;58.43